Time;durP1;ratioP1;P1;durP2;ratioP2;P2;SDS_P1;SDS_P2;PMS_P1;PMS_P2;Temp;Humidity;BMP_temperature;BMP_pressure;BME280_temperature;BME280_humidity;BME280_pressure;Samples;Min_cycle;Max_cycle;Signal;HPM_P1;HPM_P2
2023/02/14 00:00:38;;;;;;;;;;;;;;;;;;5095906;28;19908;-73
2023/02/14 00:03:04;;;;;;;;;;;;;;;;;;5095880;28;19908;-74
2023/02/14 00:05:30;;;;;;;;;;;;;;;;;;5095718;28;19916;-75
2023/02/14 00:07:56;;;;;;;;;;;;;;;;;;5077597;28;19908;-76
2023/02/14 00:10:22;;;;;;;;;;;;;;;;;;5095695;28;19908;-75
2023/02/14 00:12:48;;;;;;;;;;;;;;;;;;5077538;28;19908;-74
2023/02/14 00:15:23;;;;;;;;;;;;;;;;;;5095629;28;19998;-75
2023/02/14 00:17:50;;;;;;;;;;;;;;;;;;5077440;28;20203;-75
2023/02/14 00:20:16;;;;;;;;;;;;;;;;;;5095507;28;20272;-75
2023/02/14 00:22:42;;;;;;;;;;;;;;;;;;5095755;28;19908;-74
2023/02/14 00:25:07;;;;;;;;;;;;;;;;;;5095512;28;19912;-74
2023/02/14 00:27:33;;;;;;;;;;;;;;;;;;5095392;28;20003;-74
2023/02/14 00:30:01;;;;;;;;;;;;;;;;;;5095347;28;19962;-74
2023/02/14 00:32:27;;;;;;;;;;;;;;;;;;5095650;28;19908;-74
2023/02/14 00:34:53;;;;;;;;;;;;;;;;;;5095276;28;20249;-75
2023/02/14 00:37:19;;;;;;;;;;;;;;;;;;5095149;28;19909;-74
2023/02/14 00:39:45;;;;;;;;;;;;;;;;;;5095209;28;20407;-74
2023/02/14 00:42:12;;;;;;;;;;;;;;;;;;5095389;28;19908;-75
2023/02/14 00:44:38;;;;;;;;;;;;;;;;;;5094980;28;19916;-75
2023/02/14 00:47:04;;;;;;;;;;;;;;;;;;5095001;28;19908;-74
2023/02/14 00:49:30;;;;;;;;;;;;;;;;;;5094938;28;20303;-75
2023/02/14 00:51:56;;;;;;;;;;;;;;;;;;5076711;28;20392;-75
2023/02/14 00:54:22;;;;;;;;;;;;;;;;;;5095113;28;20356;-75
2023/02/14 00:56:47;;;;;;;;;;;;;;;;;;5094716;28;19953;-75
2023/02/14 00:59:13;;;;;;;;;;;;;;;;;;5094831;28;19908;-75
2023/02/14 01:01:39;;;;;;;;;;;;;;;;;;5094684;28;19908;-75
2023/02/14 01:04:06;;;;;;;;;;;;;;;;;;5094708;28;19919;-74
2023/02/14 01:06:32;;;;;;;;;;;;;;;;;;5094635;28;19908;-75
2023/02/14 01:08:58;;;;;;;;;;;;;;;;;;5094583;28;19962;-74
2023/02/14 01:11:24;;;;;;;;;;;;;;;;;;5094551;28;19908;-75
2023/02/14 01:13:50;;;;;;;;;;;;;;;;;;5076097;28;20375;-74
2023/02/14 01:16:16;;;;;;;;;;;;;;;;;;5094908;28;19909;-74
2023/02/14 01:18:42;;;;;;;;;;;;;;;;;;5094433;28;19915;-74
2023/02/14 01:21:08;;;;;;;;;;;;;;;;;;5094532;28;19908;-74
2023/02/14 01:23:33;;;;;;;;;;;;;;;;;;5094430;28;19966;-74
2023/02/14 01:25:59;;;;;;;;;;;;;;;;;;5094236;28;20033;-75
2023/02/14 01:28:25;;;;;;;;;;;;;;;;;;5094488;28;19916;-74
2023/02/14 01:30:51;;;;;;;;;;;;;;;;;;5094216;28;19908;-74
2023/02/14 01:33:17;;;;;;;;;;;;;;;;;;5094453;28;20391;-73
2023/02/14 01:35:43;;;;;;;;;;;;;;;;;;5094339;28;19908;-76
2023/02/14 01:38:09;;;;;;;;;;;;;;;;;;5093916;28;19942;-75
2023/02/14 01:40:35;;;;;;;;;;;;;;;;;;5094090;28;19908;-75
2023/02/14 01:43:01;;;;;;;;;;;;;;;;;;5094180;28;19950;-75
2023/02/14 01:45:28;;;;;;;;;;;;;;;;;;5093965;28;19916;-74
2023/02/14 01:47:54;;;;;;;;;;;;;;;;;;5093966;28;19947;-74
2023/02/14 01:50:21;;;;;;;;;;;;;;;;;;5093921;28;19955;-74
2023/02/14 01:52:47;;;;;;;;;;;;;;;;;;5093925;28;19954;-74
2023/02/14 01:55:13;;;;;;;;;;;;;;;;;;5094087;28;20280;-74
2023/02/14 01:57:39;;;;;;;;;;;;;;;;;;5093836;28;20372;-74
2023/02/14 02:02:49;;;;;;;;;;;;;;;;;;5093178;28;19958;-75
2023/02/14 02:05:15;;;;;;;;;;;;;;;;;;5093721;28;19966;-74
2023/02/14 02:07:41;;;;;;;;;;;;;;;;;;5075635;28;19931;-74
2023/02/14 02:10:07;;;;;;;;;;;;;;;;;;5093739;28;20371;-75
2023/02/14 02:12:34;;;;;;;;;;;;;;;;;;5075659;28;19908;-74
2023/02/14 02:15:00;;;;;;;;;;;;;;;;;;5095900;28;19912;-74
2023/02/14 02:17:26;;;;;;;;;;;;;;;;;;5098179;28;20261;-74
2023/02/14 02:19:52;;;;;;;;;;;;;;;;;;5097858;28;20364;-75
2023/02/14 02:22:18;;;;;;;;;;;;;;;;;;5097888;28;19919;-73
2023/02/14 02:24:43;;;;;;;;;;;;;;;;;;5097657;28;20014;-75
2023/02/14 02:27:09;;;;;;;;;;;;;;;;;;5097720;28;19947;-74
2023/02/14 02:29:35;;;;;;;;;;;;;;;;;;5097705;28;19915;-73
2023/02/14 02:32:01;;;;;;;;;;;;;;;;;;5097675;28;19908;-74
2023/02/14 02:34:27;;;;;;;;;;;;;;;;;;5097582;28;19958;-75
2023/02/14 02:36:53;;;;;;;;;;;;;;;;;;5097533;28;19908;-75
2023/02/14 02:39:19;;;;;;;;;;;;;;;;;;5097073;28;19923;-75
2023/02/14 02:41:45;;;;;;;;;;;;;;;;;;5097461;28;19908;-74
2023/02/14 02:44:11;;;;;;;;;;;;;;;;;;5097437;28;20011;-73
2023/02/14 02:46:46;;;;;;;;;;;;;;;;;;5097369;28;19916;-75
2023/02/14 02:49:12;;;;;;;;;;;;;;;;;;5097334;28;20325;-75
2023/02/14 02:54:22;;;;;;;;;;;;;;;;;;5096972;28;19916;-73
2023/02/14 02:56:49;;;;;;;;;;;;;;;;;;5097074;28;19912;-74
2023/02/14 02:59:19;;;;;;;;;;;;;;;;;;5097550;28;19912;-74
2023/02/14 03:01:45;;;;;;;;;;;;;;;;;;5097357;28;19911;-74
2023/02/14 03:06:56;;;;;;;;;;;;;;;;;;5096721;28;19915;-74
2023/02/14 03:09:21;;;;;;;;;;;;;;;;;;5097071;28;19908;-74
2023/02/14 03:11:47;;;;;;;;;;;;;;;;;;5096863;28;19978;-74
2023/02/14 03:14:13;;;;;;;;;;;;;;;;;;5096958;28;19908;-75
2023/02/14 03:16:39;;;;;;;;;;;;;;;;;;5096738;28;19954;-75
2023/02/14 03:21:50;;;;;;;;;;;;;;;;;;5096471;28;19915;-74
2023/02/14 03:24:16;;;;;;;;;;;;;;;;;;5096777;28;19919;-75
2023/02/14 03:26:42;;;;;;;;;;;;;;;;;;5095207;28;19908;-74
2023/02/14 03:29:08;;;;;;;;;;;;;;;;;;5096520;28;19961;-75
2023/02/14 03:31:33;;;;;;;;;;;;;;;;;;5096646;28;19908;-74
2023/02/14 03:33:59;;;;;;;;;;;;;;;;;;5096432;28;20368;-74
2023/02/14 03:36:25;;;;;;;;;;;;;;;;;;5096602;28;20033;-74
2023/02/14 03:38:51;;;;;;;;;;;;;;;;;;5096106;28;19952;-75
2023/02/14 03:41:17;;;;;;;;;;;;;;;;;;5096320;28;19908;-74
2023/02/14 03:43:43;;;;;;;;;;;;;;;;;;5096295;28;19915;-74
2023/02/14 03:46:09;;;;;;;;;;;;;;;;;;5096313;28;19916;-75
2023/02/14 03:48:35;;;;;;;;;;;;;;;;;;5096181;28;19908;-74
2023/02/14 03:51:01;;;;;;;;;;;;;;;;;;5096113;28;19908;-74
2023/02/14 03:53:27;;;;;;;;;;;;;;;;;;5077893;28;19908;-75
2023/02/14 03:55:53;;;;;;;;;;;;;;;;;;5095939;28;19913;-75
2023/02/14 03:58:19;;;;;;;;;;;;;;;;;;5096091;28;19931;-74
2023/02/14 04:00:44;;;;;;;;;;;;;;;;;;5095963;28;19908;-75
2023/02/14 04:03:11;;;;;;;;;;;;;;;;;;5096097;28;19935;-74
2023/02/14 04:05:40;;;;;;;;;;;;;;;;;;5077680;28;19912;-75
2023/02/14 04:08:06;;;;;;;;;;;;;;;;;;5077650;28;20338;-75
2023/02/14 04:10:32;;;;;;;;;;;;;;;;;;5095899;28;19908;-75
2023/02/14 04:12:58;;;;;;;;;;;;;;;;;;5096138;28;20057;-76
2023/02/14 04:15:24;;;;;;;;;;;;;;;;;;5095686;28;19908;-74
2023/02/14 04:20:35;;;;;;;;;;;;;;;;;;5095296;28;19953;-76
2023/02/14 04:23:01;;;;;;;;;;;;;;;;;;5077366;28;19944;-76
2023/02/14 04:25:27;;;;;;;;;;;;;;;;;;5095603;28;20012;-74
2023/02/14 04:27:53;;;;;;;;;;;;;;;;;;5095430;28;19909;-74
2023/02/14 04:30:20;;;;;;;;;;;;;;;;;;5077189;28;19914;-75
2023/02/14 04:32:46;;;;;;;;;;;;;;;;;;5095332;28;19957;-75
2023/02/14 04:35:12;;;;;;;;;;;;;;;;;;5095258;28;20318;-75
2023/02/14 04:37:38;;;;;;;;;;;;;;;;;;5094681;28;19919;-74
2023/02/14 04:40:04;;;;;;;;;;;;;;;;;;5095174;28;19912;-75
2023/02/14 04:42:30;;;;;;;;;;;;;;;;;;5095198;28;20284;-76
2023/02/14 04:44:56;;;;;;;;;;;;;;;;;;5094994;28;19916;-75
2023/02/14 04:47:22;;;;;;;;;;;;;;;;;;5095269;28;19995;-75
2023/02/14 04:49:47;;;;;;;;;;;;;;;;;;5076759;28;20286;-74
2023/02/14 04:52:13;;;;;;;;;;;;;;;;;;5094928;28;20042;-74
2023/02/14 04:54:39;;;;;;;;;;;;;;;;;;5095096;28;19949;-74
2023/02/14 04:57:05;;;;;;;;;;;;;;;;;;5094787;28;19908;-74
2023/02/14 04:59:31;;;;;;;;;;;;;;;;;;5094794;28;19908;-75
2023/02/14 05:01:57;;;;;;;;;;;;;;;;;;5076532;28;19915;-75
2023/02/14 05:04:23;;;;;;;;;;;;;;;;;;5094596;28;19912;-74
2023/02/14 05:06:49;;;;;;;;;;;;;;;;;;5094752;28;19908;-75
2023/02/14 05:09:15;;;;;;;;;;;;;;;;;;5094607;28;19990;-74
2023/02/14 05:11:41;;;;;;;;;;;;;;;;;;5094571;28;19943;-75
2023/02/14 05:14:07;;;;;;;;;;;;;;;;;;5094732;28;19916;-75
2023/02/14 05:16:33;;;;;;;;;;;;;;;;;;5094519;28;20007;-75
2023/02/14 05:18:59;;;;;;;;;;;;;;;;;;5094557;28;19947;-73
2023/02/14 05:21:25;;;;;;;;;;;;;;;;;;5094415;28;19915;-73
2023/02/14 05:23:51;;;;;;;;;;;;;;;;;;5094851;28;19912;-75
2023/02/14 05:26:17;;;;;;;;;;;;;;;;;;5094372;28;19912;-75
2023/02/14 05:28:43;;;;;;;;;;;;;;;;;;5094509;28;20280;-74
2023/02/14 05:31:09;;;;;;;;;;;;;;;;;;5094220;28;20391;-75
2023/02/14 05:33:35;;;;;;;;;;;;;;;;;;5076013;28;20002;-75
2023/02/14 05:36:01;;;;;;;;;;;;;;;;;;5094154;28;20076;-74
2023/02/14 05:38:27;;;;;;;;;;;;;;;;;;5075755;28;19919;-75
2023/02/14 05:40:53;;;;;;;;;;;;;;;;;;5094146;28;19954;-74
2023/02/14 05:43:19;;;;;;;;;;;;;;;;;;5093990;28;19908;-75
2023/02/14 05:45:45;;;;;;;;;;;;;;;;;;5094090;28;19923;-74
2023/02/14 05:48:11;;;;;;;;;;;;;;;;;;5093943;28;19912;-74
2023/02/14 05:50:37;;;;;;;;;;;;;;;;;;5074952;28;19908;-75
2023/02/14 05:53:03;;;;;;;;;;;;;;;;;;5093937;28;19908;-75
2023/02/14 05:55:29;;;;;;;;;;;;;;;;;;5093821;28;19908;-74
2023/02/14 05:57:55;;;;;;;;;;;;;;;;;;5094066;28;19915;-74
2023/02/14 06:00:21;;;;;;;;;;;;;;;;;;5093837;28;19909;-74
2023/02/14 06:02:47;;;;;;;;;;;;;;;;;;5093799;28;19981;-75
2023/02/14 06:05:14;;;;;;;;;;;;;;;;;;5093721;28;20265;-75
2023/02/14 06:07:42;;;;;;;;;;;;;;;;;;5075575;28;19991;-74
2023/02/14 06:10:08;;;;;;;;;;;;;;;;;;5093758;28;19931;-74
2023/02/14 06:12:34;;;;;;;;;;;;;;;;;;5093891;28;19934;-75
2023/02/14 06:15:00;;;;;;;;;;;;;;;;;;5093700;28;19915;-74
2023/02/14 06:17:26;;;;;;;;;;;;;;;;;;5093914;28;19908;-74
2023/02/14 06:19:52;;;;;;;;;;;;;;;;;;5075589;28;19946;-74
2023/02/14 06:22:18;;;;;;;;;;;;;;;;;;5075483;28;19912;-74
2023/02/14 06:24:44;;;;;;;;;;;;;;;;;;5093567;28;20287;-74
2023/02/14 06:27:10;;;;;;;;;;;;;;;;;;5093570;28;19908;-74
2023/02/14 06:29:36;;;;;;;;;;;;;;;;;;5093561;28;19963;-73
2023/02/14 06:32:05;;;;;;;;;;;;;;;;;;5093579;28;20392;-74
2023/02/14 06:34:31;;;;;;;;;;;;;;;;;;5093527;28;19918;-74
2023/02/14 06:36:57;;;;;;;;;;;;;;;;;;5093533;28;19995;-73
2023/02/14 06:39:23;;;;;;;;;;;;;;;;;;5093026;28;20380;-74
2023/02/14 06:41:49;;;;;;;;;;;;;;;;;;5093493;28;19914;-74
2023/02/14 06:44:15;;;;;;;;;;;;;;;;;;5093360;28;20319;-75
2023/02/14 06:46:41;;;;;;;;;;;;;;;;;;5075272;28;20441;-75
2023/02/14 06:49:06;;;;;;;;;;;;;;;;;;5093359;28;19908;-75
2023/02/14 06:51:32;;;;;;;;;;;;;;;;;;5075262;28;19912;-74
2023/02/14 06:53:58;;;;;;;;;;;;;;;;;;5093383;28;20002;-75
2023/02/14 06:56:24;;;;;;;;;;;;;;;;;;5093240;28;19939;-76
2023/02/14 06:58:50;;;;;;;;;;;;;;;;;;5093274;28;19932;-75
2023/02/14 07:01:16;;;;;;;;;;;;;;;;;;5095733;28;20296;-74
2023/02/14 07:03:42;;;;;;;;;;;;;;;;;;5097443;28;20261;-74
2023/02/14 07:06:08;;;;;;;;;;;;;;;;;;5096960;28;19912;-74
2023/02/14 07:08:34;;;;;;;;;;;;;;;;;;5096995;28;19915;-74
2023/02/14 07:11:00;;;;;;;;;;;;;;;;;;5096922;28;20314;-74
2023/02/14 07:13:26;;;;;;;;;;;;;;;;;;5097140;28;20363;-75
2023/02/14 07:15:52;;;;;;;;;;;;;;;;;;5096971;28;19908;-75
2023/02/14 07:18:18;;;;;;;;;;;;;;;;;;5096880;28;19969;-75
2023/02/14 07:20:44;;;;;;;;;;;;;;;;;;5096633;28;19974;-74
2023/02/14 07:23:10;;;;;;;;;;;;;;;;;;5097096;28;19908;-76
2023/02/14 07:25:36;;;;;;;;;;;;;;;;;;5096562;28;19919;-76
2023/02/14 07:28:03;;;;;;;;;;;;;;;;;;5096706;28;19907;-75
2023/02/14 07:30:29;;;;;;;;;;;;;;;;;;5096624;28;19908;-75
2023/02/14 07:32:55;;;;;;;;;;;;;;;;;;5096561;28;20288;-75
2023/02/14 07:35:21;;;;;;;;;;;;;;;;;;5096431;28;20356;-74
2023/02/14 07:37:47;;;;;;;;;;;;;;;;;;5096269;28;19919;-75
2023/02/14 07:40:13;;;;;;;;;;;;;;;;;;5077922;28;19908;-75
2023/02/14 07:42:39;;;;;;;;;;;;;;;;;;5078130;28;19999;-75
2023/02/14 07:45:06;;;;;;;;;;;;;;;;;;5096216;28;19916;-74
2023/02/14 07:47:32;;;;;;;;;;;;;;;;;;5096233;28;19939;-72
2023/02/14 07:49:57;;;;;;;;;;;;;;;;;;5096365;28;19915;-74
2023/02/14 07:52:23;;;;;;;;;;;;;;;;;;5096136;28;19909;-74
2023/02/14 07:54:49;;;;;;;;;;;;;;;;;;5096121;28;19961;-75
2023/02/14 07:57:15;;;;;;;;;;;;;;;;;;5095971;28;19908;-73
2023/02/14 07:59:41;;;;;;;;;;;;;;;;;;5095962;28;19908;-72
2023/02/14 08:02:07;;;;;;;;;;;;;;;;;;5095823;28;19908;-74
2023/02/14 08:04:33;;;;;;;;;;;;;;;;;;5077289;28;20372;-74
2023/02/14 08:06:59;;;;;;;;;;;;;;;;;;5095769;28;19908;-75
2023/02/14 08:09:25;;;;;;;;;;;;;;;;;;5096221;28;19915;-75
2023/02/14 08:14:35;;;;;;;;;;;;;;;;;;5095403;28;19957;-75
2023/02/14 08:17:01;;;;;;;;;;;;;;;;;;5095674;28;19908;-72
2023/02/14 08:19:29;;;;;;;;;;;;;;;;;;5095035;28;19915;-73
2023/02/14 08:21:55;;;;;;;;;;;;;;;;;;5095566;28;19908;-73
2023/02/14 08:24:21;;;;;;;;;;;;;;;;;;5095551;28;20283;-75
2023/02/14 08:26:46;;;;;;;;;;;;;;;;;;5095426;28;19915;-74
2023/02/14 08:29:12;;;;;;;;;;;;;;;;;;5095380;28;19916;-75
2023/02/14 08:31:38;;;;;;;;;;;;;;;;;;5095487;28;19930;-74
2023/02/14 08:34:04;;;;;;;;;;;;;;;;;;5077117;28;20427;-75
2023/02/14 08:36:30;;;;;;;;;;;;;;;;;;5095336;28;19913;-75
2023/02/14 08:38:56;;;;;;;;;;;;;;;;;;5095093;28;19916;-75
2023/02/14 08:41:22;;;;;;;;;;;;;;;;;;5095174;28;19915;-76
2023/02/14 08:43:48;;;;;;;;;;;;;;;;;;5095152;28;19908;-76
2023/02/14 08:46:15;;;;;;;;;;;;;;;;;;5095379;28;20288;-73
2023/02/14 08:48:42;;;;;;;;;;;;;;;;;;5094988;28;19912;-75
2023/02/14 08:51:08;;;;;;;;;;;;;;;;;;5095041;28;19953;-75
2023/02/14 08:53:34;;;;;;;;;;;;;;;;;;5094907;28;20010;-74
2023/02/14 08:56:00;;;;;;;;;;;;;;;;;;5094840;28;19908;-72
2023/02/14 08:58:25;;;;;;;;;;;;;;;;;;5094953;28;19931;-72
2023/02/14 09:00:51;;;;;;;;;;;;;;;;;;5094794;28;19931;-74
2023/02/14 09:03:17;;;;;;;;;;;;;;;;;;5094875;28;20372;-72
2023/02/14 09:05:43;;;;;;;;;;;;;;;;;;5094341;28;19912;-73
2023/02/14 09:08:09;;;;;;;;;;;;;;;;;;5076472;28;20007;-73
2023/02/14 09:10:37;;;;;;;;;;;;;;;;;;5094158;28;19908;-72
2023/02/14 09:13:03;;;;;;;;;;;;;;;;;;5094614;28;20316;-73
2023/02/14 09:15:29;;;;;;;;;;;;;;;;;;5094551;28;19943;-73
2023/02/14 09:17:55;;;;;;;;;;;;;;;;;;5094120;28;19928;-73
2023/02/14 09:20:21;;;;;;;;;;;;;;;;;;5082815;28;19912;-71
2023/02/14 09:22:47;;;;;;;;;;;;;;;;;;5094367;28;20033;-73
2023/02/14 09:25:12;;;;;;;;;;;;;;;;;;5094251;28;19919;-72
2023/02/14 09:27:38;;;;;;;;;;;;;;;;;;5094309;28;19908;-73
2023/02/14 09:30:04;;;;;;;;;;;;;;;;;;5094265;28;19909;-72
2023/02/14 09:32:30;;;;;;;;;;;;;;;;;;5094251;28;20004;-72
2023/02/14 09:34:56;;;;;;;;;;;;;;;;;;5093845;28;19908;-73
2023/02/14 09:40:07;;;;;;;;;;;;;;;;;;5093850;28;20049;-72
2023/02/14 09:42:32;;;;;;;;;;;;;;;;;;5094087;28;19943;-73
2023/02/14 09:44:58;;;;;;;;;;;;;;;;;;5094178;28;19966;-73
2023/02/14 09:47:25;;;;;;;;;;;;;;;;;;5094076;28;19908;-74
2023/02/14 09:49:51;;;;;;;;;;;;;;;;;;5094002;28;19912;-74
2023/02/14 09:52:17;;;;;;;;;;;;;;;;;;5094152;28;19965;-73
2023/02/14 09:54:43;;;;;;;;;;;;;;;;;;5093965;28;19965;-73
2023/02/14 09:57:09;;;;;;;;;;;;;;;;;;5094002;28;20334;-74
2023/02/14 09:59:35;;;;;;;;;;;;;;;;;;5093960;28;19908;-72
2023/02/14 10:02:01;;;;;;;;;;;;;;;;;;5093806;28;19966;-73
2023/02/14 10:04:27;;;;;;;;;;;;;;;;;;5094574;28;19912;-74
2023/02/14 10:06:53;;;;;;;;;;;;;;;;;;5093768;28;19912;-73
2023/02/14 10:09:19;;;;;;;;;;;;;;;;;;5093954;28;19916;-73
2023/02/14 10:11:45;;;;;;;;;;;;;;;;;;5093820;28;19999;-74
2023/02/14 10:14:11;;;;;;;;;;;;;;;;;;5093701;28;20012;-73
2023/02/14 10:16:37;;;;;;;;;;;;;;;;;;5093894;28;19908;-73
2023/02/14 10:19:03;;;;;;;;;;;;;;;;;;5093673;28;19908;-74
2023/02/14 10:21:28;;;;;;;;;;;;;;;;;;5093885;28;20338;-74
2023/02/14 10:23:54;;;;;;;;;;;;;;;;;;5093659;28;19908;-74
2023/02/14 10:26:20;;;;;;;;;;;;;;;;;;5093555;28;19916;-74
2023/02/14 10:28:48;;;;;;;;;;;;;;;;;;5093790;28;19969;-74
2023/02/14 10:31:13;;;;;;;;;;;;;;;;;;5093594;28;19916;-73
2023/02/14 10:33:39;;;;;;;;;;;;;;;;;;5093629;28;19908;-73
2023/02/14 10:36:06;;;;;;;;;;;;;;;;;;5095392;28;19923;-74
2023/02/14 10:38:32;;;;;;;;;;;;;;;;;;5097422;28;19916;-73
2023/02/14 10:40:57;;;;;;;;;;;;;;;;;;5097460;28;19915;-74
2023/02/14 10:43:23;;;;;;;;;;;;;;;;;;5097725;28;19915;-73
2023/02/14 10:45:49;;;;;;;;;;;;;;;;;;5097435;28;19916;-73
2023/02/14 10:48:15;;;;;;;;;;;;;;;;;;5097449;28;19916;-73
2023/02/14 10:50:41;;;;;;;;;;;;;;;;;;5097286;28;19915;-73
2023/02/14 10:53:07;;;;;;;;;;;;;;;;;;5097642;28;20003;-74
2023/02/14 10:55:33;;;;;;;;;;;;;;;;;;5097273;28;19958;-73
2023/02/14 10:57:59;;;;;;;;;;;;;;;;;;5097253;28;20019;-72
2023/02/14 11:00:25;;;;;;;;;;;;;;;;;;5078894;28;19908;-73
2023/02/14 11:02:51;;;;;;;;;;;;;;;;;;5093762;28;20006;-73
2023/02/14 11:05:17;;;;;;;;;;;;;;;;;;5096974;28;19951;-74
2023/02/14 11:07:43;;;;;;;;;;;;;;;;;;5097010;28;19908;-73
2023/02/14 11:10:09;;;;;;;;;;;;;;;;;;5096921;28;19912;-74
2023/02/14 11:12:36;;;;;;;;;;;;;;;;;;5096922;28;20060;-73
2023/02/14 11:15:02;;;;;;;;;;;;;;;;;;5096958;28;19962;-74
2023/02/14 11:17:29;;;;;;;;;;;;;;;;;;5078560;28;20356;-73
2023/02/14 11:19:55;;;;;;;;;;;;;;;;;;5078552;28;20349;-73
2023/02/14 11:22:21;;;;;;;;;;;;;;;;;;5096742;28;20002;-73
2023/02/14 11:24:47;;;;;;;;;;;;;;;;;;5096909;28;20009;-73
2023/02/14 11:27:13;;;;;;;;;;;;;;;;;;5079992;28;19913;-74
2023/02/14 11:29:39;;;;;;;;;;;;;;;;;;5076362;28;19959;-73
2023/02/14 11:32:05;;;;;;;;;;;;;;;;;;5076282;28;19909;-75
2023/02/14 11:34:31;;;;;;;;;;;;;;;;;;5076566;28;20003;-74
2023/02/14 11:36:57;;;;;;;;;;;;;;;;;;5076326;28;19908;-74
2023/02/14 11:39:23;;;;;;;;;;;;;;;;;;5077323;28;19924;-74
2023/02/14 11:41:49;;;;;;;;;;;;;;;;;;5079997;28;20339;-75
2023/02/14 11:44:21;;;;;;;;;;;;;;;;;;5079595;28;19935;-75
2023/02/14 11:46:48;;;;;;;;;;;;;;;;;;5077542;28;19931;-76
2023/02/14 11:49:14;;;;;;;;;;;;;;;;;;5085177;28;20365;-75
2023/02/14 11:51:40;;;;;;;;;;;;;;;;;;5084553;28;20020;-74
2023/02/14 11:54:06;;;;;;;;;;;;;;;;;;5086286;28;19931;-76
2023/02/14 11:56:32;;;;;;;;;;;;;;;;;;5073764;28;20326;-74
2023/02/14 11:58:58;;;;;;;;;;;;;;;;;;5087016;28;19999;-75
2023/02/14 12:01:24;;;;;;;;;;;;;;;;;;5084135;28;19993;-74
2023/02/14 12:03:50;;;;;;;;;;;;;;;;;;5085660;28;19912;-75
2023/02/14 12:06:16;;;;;;;;;;;;;;;;;;5085440;28;19918;-74
2023/02/14 12:08:42;;;;;;;;;;;;;;;;;;5084042;28;19917;-74
2023/02/14 12:11:08;;;;;;;;;;;;;;;;;;5085786;28;20011;-75
2023/02/14 12:13:35;;;;;;;;;;;;;;;;;;5085058;28;20269;-75
2023/02/14 12:16:02;;;;;;;;;;;;;;;;;;5083944;28;20338;-75
2023/02/14 12:18:28;;;;;;;;;;;;;;;;;;5074521;28;19999;-75
2023/02/14 12:20:54;;;;;;;;;;;;;;;;;;5084788;28;20411;-75
2023/02/14 12:23:20;;;;;;;;;;;;;;;;;;5085783;28;19908;-72
2023/02/14 12:25:46;;;;;;;;;;;;;;;;;;5083545;28;20331;-74
2023/02/14 12:28:12;;;;;;;;;;;;;;;;;;5083076;28;19962;-73
2023/02/14 12:30:38;;;;;;;;;;;;;;;;;;5075092;28;19909;-75
2023/02/14 12:33:05;;;;;;;;;;;;;;;;;;5075144;28;19951;-73
2023/02/14 12:35:31;;;;;;;;;;;;;;;;;;5057096;28;20381;-75
2023/02/14 12:37:57;;;;;;;;;;;;;;;;;;5075136;28;19917;-75
2023/02/14 12:40:23;;;;;;;;;;;;;;;;;;5074970;28;19915;-75
2023/02/14 12:42:49;;;;;;;;;;;;;;;;;;5074976;28;19913;-73
2023/02/14 12:45:15;;;;;;;;;;;;;;;;;;5074817;28;19923;-75
2023/02/14 12:47:41;;;;;;;;;;;;;;;;;;5075052;28;19912;-75
2023/02/14 12:50:08;;;;;;;;;;;;;;;;;;5056715;28;19915;-75
2023/02/14 12:52:34;;;;;;;;;;;;;;;;;;5074717;28;20311;-75
2023/02/14 12:55:00;;;;;;;;;;;;;;;;;;5074684;28;19972;-74
2023/02/14 12:57:26;;;;;;;;;;;;;;;;;;5074576;28;19909;-76
2023/02/14 12:59:52;;;;;;;;;;;;;;;;;;5074433;28;19909;-75
2023/02/14 13:02:18;;;;;;;;;;;;;;;;;;5074485;28;19995;-74
2023/02/14 13:04:43;;;;;;;;;;;;;;;;;;5074426;28;19952;-74
2023/02/14 13:07:09;;;;;;;;;;;;;;;;;;5074482;28;20315;-73
2023/02/14 13:09:35;;;;;;;;;;;;;;;;;;5056429;28;19934;-74
2023/02/14 13:12:01;;;;;;;;;;;;;;;;;;5074372;28;19958;-74
2023/02/14 13:14:27;;;;;;;;;;;;;;;;;;5074694;28;19916;-76
2023/02/14 13:16:53;;;;;;;;;;;;;;;;;;5074295;28;19908;-74
2023/02/14 13:19:19;;;;;;;;;;;;;;;;;;5074420;28;19908;-74
2023/02/14 13:21:45;;;;;;;;;;;;;;;;;;5074204;28;20356;-73
2023/02/14 13:24:11;;;;;;;;;;;;;;;;;;5074568;28;19920;-74
2023/02/14 13:26:37;;;;;;;;;;;;;;;;;;5074109;28;19919;-74
2023/02/14 13:29:03;;;;;;;;;;;;;;;;;;5074140;28;20350;-73
2023/02/14 13:31:29;;;;;;;;;;;;;;;;;;5074075;28;19908;-73
2023/02/14 13:33:55;;;;;;;;;;;;;;;;;;5074402;28;19915;-75
2023/02/14 13:36:21;;;;;;;;;;;;;;;;;;5055973;28;19912;-75
2023/02/14 13:38:47;;;;;;;;;;;;;;;;;;5073751;28;19924;-74
2023/02/14 13:41:13;;;;;;;;;;;;;;;;;;5073929;28;19908;-72
2023/02/14 13:43:39;;;;;;;;;;;;;;;;;;5073993;28;19916;-74
2023/02/14 13:46:05;;;;;;;;;;;;;;;;;;5074199;28;20288;-75
2023/02/14 13:48:31;;;;;;;;;;;;;;;;;;5055882;28;19913;-75
2023/02/14 13:50:57;;;;;;;;;;;;;;;;;;5073906;28;19915;-73
2023/02/14 13:53:23;;;;;;;;;;;;;;;;;;5073855;28;19990;-74
2023/02/14 13:55:54;;;;;;;;;;;;;;;;;;5073677;28;20310;-73
2023/02/14 13:58:20;;;;;;;;;;;;;;;;;;5074060;28;20376;-73
2023/02/14 14:00:46;;;;;;;;;;;;;;;;;;5073892;28;19915;-73
2023/02/14 14:03:12;;;;;;;;;;;;;;;;;;5073764;28;20376;-73
2023/02/14 14:05:39;;;;;;;;;;;;;;;;;;5073543;28;19955;-73
2023/02/14 14:08:05;;;;;;;;;;;;;;;;;;5078910;28;19982;-74
2023/02/14 14:10:31;;;;;;;;;;;;;;;;;;5072856;28;20383;-74
2023/02/14 14:12:57;;;;;;;;;;;;;;;;;;5073544;28;19934;-74
2023/02/14 14:15:23;;;;;;;;;;;;;;;;;;5073597;28;19954;-74
2023/02/14 14:17:49;;;;;;;;;;;;;;;;;;5055506;28;19958;-74
2023/02/14 14:20:15;;;;;;;;;;;;;;;;;;5073680;28;19908;-75
2023/02/14 14:22:41;;;;;;;;;;;;;;;;;;5055429;28;19912;-74
2023/02/14 14:25:08;;;;;;;;;;;;;;;;;;5073441;28;19912;-75
2023/02/14 14:27:33;;;;;;;;;;;;;;;;;;5073449;28;19909;-74
2023/02/14 14:29:59;;;;;;;;;;;;;;;;;;5073601;28;19908;-75
2023/02/14 14:32:25;;;;;;;;;;;;;;;;;;5073399;28;19909;-73
2023/02/14 14:34:51;;;;;;;;;;;;;;;;;;5073323;28;19969;-74
2023/02/14 14:37:17;;;;;;;;;;;;;;;;;;5073097;28;19962;-74
2023/02/14 14:39:43;;;;;;;;;;;;;;;;;;5073741;28;19913;-75
2023/02/14 14:42:09;;;;;;;;;;;;;;;;;;5073416;28;19909;-73
2023/02/14 14:44:35;;;;;;;;;;;;;;;;;;5073235;28;19921;-72
2023/02/14 14:47:01;;;;;;;;;;;;;;;;;;5073289;28;19913;-73
2023/02/14 14:49:27;;;;;;;;;;;;;;;;;;5073197;28;19909;-72
2023/02/14 14:51:53;;;;;;;;;;;;;;;;;;5073432;28;19959;-73
2023/02/14 14:54:19;;;;;;;;;;;;;;;;;;5073219;28;20289;-73
2023/02/14 14:56:45;;;;;;;;;;;;;;;;;;5073256;28;20399;-73
2023/02/14 14:59:11;;;;;;;;;;;;;;;;;;5055080;28;19912;-73
2023/02/14 15:01:37;;;;;;;;;;;;;;;;;;5073445;28;19953;-73
2023/02/14 15:04:03;;;;;;;;;;;;;;;;;;5073093;28;20006;-73
2023/02/14 15:06:29;;;;;;;;;;;;;;;;;;5073185;28;20394;-73
2023/02/14 15:08:55;;;;;;;;;;;;;;;;;;5073043;28;19908;-72
2023/02/14 15:14:07;;;;;;;;;;;;;;;;;;5072776;28;19915;-74
2023/02/14 15:16:33;;;;;;;;;;;;;;;;;;5054945;28;19916;-73
2023/02/14 15:18:59;;;;;;;;;;;;;;;;;;5072924;28;19908;-73
2023/02/14 15:21:25;;;;;;;;;;;;;;;;;;5073823;28;19909;-73
2023/02/14 15:23:51;;;;;;;;;;;;;;;;;;5076473;28;19955;-72
2023/02/14 15:26:17;;;;;;;;;;;;;;;;;;5076617;28;19913;-74
2023/02/14 15:28:43;;;;;;;;;;;;;;;;;;5076380;28;19915;-74
2023/02/14 15:31:09;;;;;;;;;;;;;;;;;;5076312;28;19908;-72
2023/02/14 15:33:35;;;;;;;;;;;;;;;;;;5076338;28;20297;-72
2023/02/14 15:36:01;;;;;;;;;;;;;;;;;;5076249;28;19916;-73
2023/02/14 15:38:27;;;;;;;;;;;;;;;;;;5076048;28;19960;-72
2023/02/14 15:40:53;;;;;;;;;;;;;;;;;;5076446;28;19915;-73
2023/02/14 15:43:23;;;;;;;;;;;;;;;;;;5076220;28;19909;-72
2023/02/14 15:45:49;;;;;;;;;;;;;;;;;;5076009;28;20392;-73
2023/02/14 15:48:15;;;;;;;;;;;;;;;;;;5076353;28;19909;-74
2023/02/14 15:50:41;;;;;;;;;;;;;;;;;;5076105;28;20007;-73
2023/02/14 15:53:07;;;;;;;;;;;;;;;;;;5075931;28;19916;-72
2023/02/14 15:55:33;;;;;;;;;;;;;;;;;;5075828;28;19908;-72
2023/02/14 15:57:59;;;;;;;;;;;;;;;;;;5075842;28;19909;-74
2023/02/14 16:00:25;;;;;;;;;;;;;;;;;;5075917;28;19993;-73
2023/02/14 16:02:51;;;;;;;;;;;;;;;;;;5075821;28;20433;-72
2023/02/14 16:05:17;;;;;;;;;;;;;;;;;;5075635;28;20003;-73
2023/02/14 16:07:43;;;;;;;;;;;;;;;;;;5076020;28;19959;-73
2023/02/14 16:10:09;;;;;;;;;;;;;;;;;;5075662;28;19908;-73
2023/02/14 16:12:35;;;;;;;;;;;;;;;;;;5075568;28;19908;-73
2023/02/14 16:15:01;;;;;;;;;;;;;;;;;;5075547;28;20071;-72
2023/02/14 16:17:27;;;;;;;;;;;;;;;;;;5075465;28;20331;-73
2023/02/14 16:19:52;;;;;;;;;;;;;;;;;;5075637;28;19962;-73
2023/02/14 16:22:18;;;;;;;;;;;;;;;;;;5075356;28;20368;-72
2023/02/14 16:24:44;;;;;;;;;;;;;;;;;;5075259;28;19912;-74
2023/02/14 16:27:12;;;;;;;;;;;;;;;;;;5075327;28;20391;-73
2023/02/14 16:29:40;;;;;;;;;;;;;;;;;;5075264;28;19909;-72
2023/02/14 16:32:05;;;;;;;;;;;;;;;;;;5075455;28;19908;-72
2023/02/14 16:34:31;;;;;;;;;;;;;;;;;;5074597;28;19912;-73
2023/02/14 16:36:57;;;;;;;;;;;;;;;;;;5057037;28;19912;-75
2023/02/14 16:39:25;;;;;;;;;;;;;;;;;;5074525;28;20369;-74
2023/02/14 16:41:51;;;;;;;;;;;;;;;;;;5074976;28;19908;-74
2023/02/14 16:44:19;;;;;;;;;;;;;;;;;;5074114;28;20206;-76
2023/02/14 16:46:44;;;;;;;;;;;;;;;;;;5074875;28;19912;-74
2023/02/14 16:49:11;;;;;;;;;;;;;;;;;;5074807;28;19908;-72
2023/02/14 16:51:37;;;;;;;;;;;;;;;;;;5074921;28;20334;-75
2023/02/14 16:54:03;;;;;;;;;;;;;;;;;;5075021;28;19944;-72
2023/02/14 16:56:28;;;;;;;;;;;;;;;;;;5074808;28;20010;-76
2023/02/14 16:58:56;;;;;;;;;;;;;;;;;;5074633;28;19909;-74